sensor_id;sensor_type;location;lat;lon;timestamp;P1;durP1;ratioP1;P2;durP2;ratioP2
29280;SDS011;25048;49.590;11.026;2022-08-21T00:01:30;10.35;;;6.42;;
29280;SDS011;25048;49.590;11.026;2022-08-21T00:04:03;9.15;;;6.40;;
29280;SDS011;25048;49.590;11.026;2022-08-21T00:06:31;10.10;;;6.37;;
29280;SDS011;25048;49.590;11.026;2022-08-21T00:09:00;8.95;;;5.17;;
29280;SDS011;25048;49.590;11.026;2022-08-21T00:11:28;8.98;;;6.33;;
29280;SDS011;25048;49.590;11.026;2022-08-21T00:13:55;7.37;;;5.60;;
29280;SDS011;25048;49.590;11.026;2022-08-21T00:16:23;10.43;;;6.05;;
29280;SDS011;25048;49.590;11.026;2022-08-21T00:18:51;8.28;;;6.05;;
29280;SDS011;25048;49.590;11.026;2022-08-21T00:21:18;11.93;;;6.62;;
29280;SDS011;25048;49.590;11.026;2022-08-21T00:23:46;9.00;;;5.95;;
29280;SDS011;25048;49.590;11.026;2022-08-21T00:26:14;9.30;;;6.45;;
29280;SDS011;25048;49.590;11.026;2022-08-21T00:28:41;10.63;;;6.42;;
29280;SDS011;25048;49.590;11.026;2022-08-21T00:31:11;11.90;;;6.08;;
29280;SDS011;25048;49.590;11.026;2022-08-21T00:33:39;9.70;;;6.85;;
29280;SDS011;25048;49.590;11.026;2022-08-21T00:36:06;8.63;;;6.97;;
29280;SDS011;25048;49.590;11.026;2022-08-21T00:38:34;8.68;;;6.05;;
29280;SDS011;25048;49.590;11.026;2022-08-21T00:41:03;9.55;;;6.10;;
29280;SDS011;25048;49.590;11.026;2022-08-21T00:43:34;7.00;;;5.55;;
29280;SDS011;25048;49.590;11.026;2022-08-21T00:46:03;10.40;;;6.05;;
29280;SDS011;25048;49.590;11.026;2022-08-21T00:48:31;7.97;;;5.70;;
29280;SDS011;25048;49.590;11.026;2022-08-21T00:51:05;6.37;;;5.20;;
29280;SDS011;25048;49.590;11.026;2022-08-21T00:53:37;11.18;;;6.12;;
29280;SDS011;25048;49.590;11.026;2022-08-21T00:56:08;9.27;;;6.80;;
29280;SDS011;25048;49.590;11.026;2022-08-21T00:58:37;7.85;;;6.42;;
29280;SDS011;25048;49.590;11.026;2022-08-21T01:01:07;9.98;;;6.35;;
29280;SDS011;25048;49.590;11.026;2022-08-21T01:03:36;9.00;;;6.47;;
29280;SDS011;25048;49.590;11.026;2022-08-21T01:06:04;8.05;;;5.83;;
29280;SDS011;25048;49.590;11.026;2022-08-21T01:08:32;7.97;;;6.33;;
29280;SDS011;25048;49.590;11.026;2022-08-21T01:11:01;9.83;;;6.78;;
29280;SDS011;25048;49.590;11.026;2022-08-21T01:13:31;14.80;;;7.15;;
29280;SDS011;25048;49.590;11.026;2022-08-21T01:16:00;11.33;;;6.55;;
29280;SDS011;25048;49.590;11.026;2022-08-21T01:18:31;12.50;;;6.35;;
29280;SDS011;25048;49.590;11.026;2022-08-21T01:21:09;12.43;;;7.00;;
29280;SDS011;25048;49.590;11.026;2022-08-21T01:23:40;9.48;;;7.20;;
29280;SDS011;25048;49.590;11.026;2022-08-21T01:26:10;10.65;;;7.00;;
29280;SDS011;25048;49.590;11.026;2022-08-21T01:28:48;10.98;;;6.65;;
29280;SDS011;25048;49.590;11.026;2022-08-21T01:31:16;8.63;;;6.70;;
29280;SDS011;25048;49.590;11.026;2022-08-21T01:33:46;7.90;;;6.05;;
29280;SDS011;25048;49.590;11.026;2022-08-21T01:36:14;10.03;;;6.25;;
29280;SDS011;25048;49.590;11.026;2022-08-21T01:38:41;12.37;;;7.47;;
29280;SDS011;25048;49.590;11.026;2022-08-21T01:41:09;9.20;;;7.17;;
29280;SDS011;25048;49.590;11.026;2022-08-21T01:43:36;8.63;;;6.47;;
29280;SDS011;25048;49.590;11.026;2022-08-21T01:46:04;9.08;;;6.70;;
29280;SDS011;25048;49.590;11.026;2022-08-21T01:48:32;10.98;;;6.80;;
29280;SDS011;25048;49.590;11.026;2022-08-21T01:51:00;8.95;;;6.35;;
29280;SDS011;25048;49.590;11.026;2022-08-21T01:53:27;7.83;;;6.12;;
29280;SDS011;25048;49.590;11.026;2022-08-21T01:55:55;8.10;;;6.70;;
29280;SDS011;25048;49.590;11.026;2022-08-21T01:58:23;10.50;;;7.50;;
29280;SDS011;25048;49.590;11.026;2022-08-21T02:00:50;10.23;;;7.17;;
29280;SDS011;25048;49.590;11.026;2022-08-21T02:03:18;8.80;;;6.35;;
29280;SDS011;25048;49.590;11.026;2022-08-21T02:05:45;9.53;;;6.72;;
29280;SDS011;25048;49.590;11.026;2022-08-21T02:08:13;10.78;;;6.42;;
29280;SDS011;25048;49.590;11.026;2022-08-21T02:10:41;8.40;;;6.42;;
29280;SDS011;25048;49.590;11.026;2022-08-21T02:13:09;10.65;;;7.25;;
29280;SDS011;25048;49.590;11.026;2022-08-21T02:15:36;12.55;;;7.30;;
29280;SDS011;25048;49.590;11.026;2022-08-21T02:18:04;11.18;;;7.37;;
29280;SDS011;25048;49.590;11.026;2022-08-21T02:20:34;7.65;;;6.10;;
29280;SDS011;25048;49.590;11.026;2022-08-21T02:23:04;8.05;;;6.40;;
29280;SDS011;25048;49.590;11.026;2022-08-21T02:25:33;8.43;;;6.40;;
29280;SDS011;25048;49.590;11.026;2022-08-21T02:28:05;8.90;;;6.53;;
29280;SDS011;25048;49.590;11.026;2022-08-21T02:30:37;8.65;;;6.40;;
29280;SDS011;25048;49.590;11.026;2022-08-21T02:33:07;8.23;;;6.33;;
29280;SDS011;25048;49.590;11.026;2022-08-21T02:35:36;9.65;;;6.03;;
29280;SDS011;25048;49.590;11.026;2022-08-21T02:38:06;6.87;;;6.17;;
29280;SDS011;25048;49.590;11.026;2022-08-21T02:40:36;10.30;;;6.25;;
29280;SDS011;25048;49.590;11.026;2022-08-21T02:43:05;7.37;;;5.72;;
29280;SDS011;25048;49.590;11.026;2022-08-21T02:45:35;8.53;;;6.35;;
29280;SDS011;25048;49.590;11.026;2022-08-21T02:48:04;11.22;;;6.15;;
29280;SDS011;25048;49.590;11.026;2022-08-21T02:50:36;11.30;;;6.62;;
29280;SDS011;25048;49.590;11.026;2022-08-21T02:53:04;8.75;;;6.60;;
29280;SDS011;25048;49.590;11.026;2022-08-21T02:55:34;15.50;;;6.33;;
29280;SDS011;25048;49.590;11.026;2022-08-21T02:58:04;8.33;;;6.70;;
29280;SDS011;25048;49.590;11.026;2022-08-21T03:00:33;12.00;;;7.08;;
29280;SDS011;25048;49.590;11.026;2022-08-21T03:03:01;9.08;;;6.50;;
29280;SDS011;25048;49.590;11.026;2022-08-21T03:05:30;6.95;;;5.75;;
29280;SDS011;25048;49.590;11.026;2022-08-21T03:07:59;7.15;;;5.92;;
29280;SDS011;25048;49.590;11.026;2022-08-21T03:10:28;7.95;;;6.15;;
29280;SDS011;25048;49.590;11.026;2022-08-21T03:12:56;7.30;;;4.72;;
29280;SDS011;25048;49.590;11.026;2022-08-21T03:15:24;10.23;;;6.03;;
29280;SDS011;25048;49.590;11.026;2022-08-21T03:17:53;6.40;;;5.17;;
29280;SDS011;25048;49.590;11.026;2022-08-21T03:20:21;5.50;;;4.85;;
29280;SDS011;25048;49.590;11.026;2022-08-21T03:22:51;6.03;;;5.08;;
29280;SDS011;25048;49.590;11.026;2022-08-21T03:25:19;8.28;;;5.28;;
29280;SDS011;25048;49.590;11.026;2022-08-21T03:27:47;8.90;;;5.80;;
29280;SDS011;25048;49.590;11.026;2022-08-21T03:30:16;10.75;;;5.75;;
29280;SDS011;25048;49.590;11.026;2022-08-21T03:32:46;7.25;;;5.87;;
29280;SDS011;25048;49.590;11.026;2022-08-21T03:35:14;8.75;;;6.40;;
29280;SDS011;25048;49.590;11.026;2022-08-21T03:37:42;8.48;;;7.00;;
29280;SDS011;25048;49.590;11.026;2022-08-21T03:40:10;12.00;;;7.08;;
29280;SDS011;25048;49.590;11.026;2022-08-21T03:42:40;9.83;;;8.23;;
29280;SDS011;25048;49.590;11.026;2022-08-21T03:45:08;9.30;;;6.87;;
29280;SDS011;25048;49.590;11.026;2022-08-21T03:47:36;10.75;;;7.50;;
29280;SDS011;25048;49.590;11.026;2022-08-21T03:50:04;12.30;;;8.03;;
29280;SDS011;25048;49.590;11.026;2022-08-21T03:52:33;11.95;;;7.62;;
29280;SDS011;25048;49.590;11.026;2022-08-21T03:55:01;22.17;;;10.23;;
29280;SDS011;25048;49.590;11.026;2022-08-21T03:57:28;13.05;;;9.18;;
29280;SDS011;25048;49.590;11.026;2022-08-21T03:59:56;9.95;;;8.08;;
29280;SDS011;25048;49.590;11.026;2022-08-21T04:02:23;15.15;;;8.05;;
29280;SDS011;25048;49.590;11.026;2022-08-21T04:04:51;14.63;;;8.20;;
29280;SDS011;25048;49.590;11.026;2022-08-21T04:07:18;10.70;;;8.08;;
29280;SDS011;25048;49.590;11.026;2022-08-21T04:09:46;11.03;;;7.53;;
29280;SDS011;25048;49.590;11.026;2022-08-21T04:12:13;18.05;;;9.58;;
29280;SDS011;25048;49.590;11.026;2022-08-21T04:14:41;12.88;;;8.50;;
29280;SDS011;25048;49.590;11.026;2022-08-21T04:17:08;12.93;;;8.70;;
29280;SDS011;25048;49.590;11.026;2022-08-21T04:19:36;13.80;;;8.73;;
29280;SDS011;25048;49.590;11.026;2022-08-21T04:22:04;12.63;;;8.70;;
29280;SDS011;25048;49.590;11.026;2022-08-21T04:24:31;14.60;;;8.70;;
29280;SDS011;25048;49.590;11.026;2022-08-21T04:27:00;14.80;;;8.80;;
29280;SDS011;25048;49.590;11.026;2022-08-21T04:29:27;17.20;;;9.68;;
29280;SDS011;25048;49.590;11.026;2022-08-21T04:31:55;16.50;;;10.28;;
29280;SDS011;25048;49.590;11.026;2022-08-21T04:34:23;15.40;;;10.18;;
29280;SDS011;25048;49.590;11.026;2022-08-21T04:36:50;19.62;;;10.15;;
29280;SDS011;25048;49.590;11.026;2022-08-21T04:39:18;18.23;;;9.03;;
29280;SDS011;25048;49.590;11.026;2022-08-21T04:41:45;14.15;;;9.15;;
29280;SDS011;25048;49.590;11.026;2022-08-21T04:44:13;11.68;;;8.05;;
29280;SDS011;25048;49.590;11.026;2022-08-21T04:46:40;12.78;;;8.05;;
29280;SDS011;25048;49.590;11.026;2022-08-21T04:49:08;13.40;;;7.90;;
29280;SDS011;25048;49.590;11.026;2022-08-21T04:51:36;9.15;;;7.87;;
29280;SDS011;25048;49.590;11.026;2022-08-21T04:54:17;10.85;;;7.42;;
29280;SDS011;25048;49.590;11.026;2022-08-21T04:56:45;11.53;;;7.05;;
29280;SDS011;25048;49.590;11.026;2022-08-21T04:59:22;9.58;;;7.03;;
29280;SDS011;25048;49.590;11.026;2022-08-21T05:01:54;9.68;;;6.58;;
29280;SDS011;25048;49.590;11.026;2022-08-21T05:04:24;6.45;;;5.65;;
29280;SDS011;25048;49.590;11.026;2022-08-21T05:06:54;8.93;;;6.17;;
29280;SDS011;25048;49.590;11.026;2022-08-21T05:09:24;8.00;;;6.50;;
29280;SDS011;25048;49.590;11.026;2022-08-21T05:11:52;10.20;;;6.33;;
29280;SDS011;25048;49.590;11.026;2022-08-21T05:14:20;8.33;;;5.83;;
29280;SDS011;25048;49.590;11.026;2022-08-21T05:16:47;9.20;;;5.72;;
29280;SDS011;25048;49.590;11.026;2022-08-21T05:19:15;7.72;;;5.97;;
29280;SDS011;25048;49.590;11.026;2022-08-21T05:21:43;6.37;;;5.50;;
29280;SDS011;25048;49.590;11.026;2022-08-21T05:24:13;10.45;;;6.33;;
29280;SDS011;25048;49.590;11.026;2022-08-21T05:26:41;8.53;;;6.37;;
29280;SDS011;25048;49.590;11.026;2022-08-21T05:29:09;10.00;;;6.25;;
29280;SDS011;25048;49.590;11.026;2022-08-21T05:31:37;8.45;;;6.65;;
29280;SDS011;25048;49.590;11.026;2022-08-21T05:34:05;8.15;;;6.20;;
29280;SDS011;25048;49.590;11.026;2022-08-21T05:36:33;7.92;;;6.30;;
29280;SDS011;25048;49.590;11.026;2022-08-21T05:39:01;9.90;;;6.22;;
29280;SDS011;25048;49.590;11.026;2022-08-21T05:41:29;7.78;;;6.25;;
29280;SDS011;25048;49.590;11.026;2022-08-21T05:43:57;9.83;;;7.10;;
29280;SDS011;25048;49.590;11.026;2022-08-21T05:46:24;8.33;;;7.53;;
29280;SDS011;25048;49.590;11.026;2022-08-21T05:48:52;8.00;;;6.78;;
29280;SDS011;25048;49.590;11.026;2022-08-21T05:51:19;8.50;;;7.22;;
29280;SDS011;25048;49.590;11.026;2022-08-21T05:53:47;10.38;;;6.55;;
29280;SDS011;25048;49.590;11.026;2022-08-21T05:56:15;9.35;;;7.22;;
29280;SDS011;25048;49.590;11.026;2022-08-21T05:58:43;13.95;;;8.40;;
29280;SDS011;25048;49.590;11.026;2022-08-21T06:01:11;10.00;;;6.55;;
29280;SDS011;25048;49.590;11.026;2022-08-21T06:03:40;8.50;;;6.90;;
29280;SDS011;25048;49.590;11.026;2022-08-21T06:06:09;7.55;;;6.05;;
29280;SDS011;25048;49.590;11.026;2022-08-21T06:08:36;7.33;;;6.12;;
29280;SDS011;25048;49.590;11.026;2022-08-21T06:11:04;8.43;;;6.67;;
29280;SDS011;25048;49.590;11.026;2022-08-21T06:13:32;8.23;;;6.78;;
29280;SDS011;25048;49.590;11.026;2022-08-21T06:16:06;7.15;;;6.17;;
29280;SDS011;25048;49.590;11.026;2022-08-21T06:18:32;11.55;;;6.08;;
29280;SDS011;25048;49.590;11.026;2022-08-21T06:21:00;7.25;;;6.03;;
29280;SDS011;25048;49.590;11.026;2022-08-21T06:23:27;7.92;;;6.05;;
29280;SDS011;25048;49.590;11.026;2022-08-21T06:25:55;9.25;;;5.55;;
29280;SDS011;25048;49.590;11.026;2022-08-21T06:28:23;6.35;;;5.33;;
29280;SDS011;25048;49.590;11.026;2022-08-21T06:30:50;7.10;;;5.40;;
29280;SDS011;25048;49.590;11.026;2022-08-21T06:33:18;6.20;;;5.28;;
29280;SDS011;25048;49.590;11.026;2022-08-21T06:35:46;7.83;;;4.85;;
29280;SDS011;25048;49.590;11.026;2022-08-21T06:38:13;7.95;;;5.62;;
29280;SDS011;25048;49.590;11.026;2022-08-21T06:40:41;6.00;;;5.00;;
29280;SDS011;25048;49.590;11.026;2022-08-21T06:43:11;7.53;;;5.55;;
29280;SDS011;25048;49.590;11.026;2022-08-21T06:45:40;8.18;;;6.45;;
29280;SDS011;25048;49.590;11.026;2022-08-21T06:48:07;9.18;;;6.60;;
29280;SDS011;25048;49.590;11.026;2022-08-21T06:50:35;9.05;;;6.97;;
29280;SDS011;25048;49.590;11.026;2022-08-21T06:53:05;9.33;;;6.70;;
29280;SDS011;25048;49.590;11.026;2022-08-21T06:55:34;10.98;;;8.43;;
29280;SDS011;25048;49.590;11.026;2022-08-21T06:58:02;10.98;;;7.37;;
29280;SDS011;25048;49.590;11.026;2022-08-21T07:00:31;12.00;;;8.50;;
29280;SDS011;25048;49.590;11.026;2022-08-21T07:02:59;9.53;;;7.40;;
29280;SDS011;25048;49.590;11.026;2022-08-21T07:05:27;13.30;;;7.75;;
29280;SDS011;25048;49.590;11.026;2022-08-21T07:07:56;11.57;;;8.13;;
29280;SDS011;25048;49.590;11.026;2022-08-21T07:10:29;14.90;;;8.75;;
29280;SDS011;25048;49.590;11.026;2022-08-21T07:12:53;13.15;;;8.40;;
29280;SDS011;25048;49.590;11.026;2022-08-21T07:15:21;15.32;;;9.08;;
29280;SDS011;25048;49.590;11.026;2022-08-21T07:17:49;15.15;;;9.70;;
29280;SDS011;25048;49.590;11.026;2022-08-21T07:20:16;15.80;;;8.88;;
29280;SDS011;25048;49.590;11.026;2022-08-21T07:22:44;14.20;;;8.33;;
29280;SDS011;25048;49.590;11.026;2022-08-21T07:25:11;14.90;;;8.60;;
29280;SDS011;25048;49.590;11.026;2022-08-21T07:27:39;13.13;;;8.78;;
29280;SDS011;25048;49.590;11.026;2022-08-21T07:30:07;13.55;;;8.70;;
29280;SDS011;25048;49.590;11.026;2022-08-21T07:32:34;14.10;;;8.88;;
29280;SDS011;25048;49.590;11.026;2022-08-21T07:35:02;13.30;;;9.23;;
29280;SDS011;25048;49.590;11.026;2022-08-21T07:37:30;11.95;;;8.40;;
29280;SDS011;25048;49.590;11.026;2022-08-21T07:39:57;12.53;;;8.35;;
29280;SDS011;25048;49.590;11.026;2022-08-21T07:42:25;11.33;;;8.63;;
29280;SDS011;25048;49.590;11.026;2022-08-21T07:44:54;14.15;;;9.20;;
29280;SDS011;25048;49.590;11.026;2022-08-21T07:47:22;11.95;;;8.23;;
29280;SDS011;25048;49.590;11.026;2022-08-21T07:49:50;12.78;;;8.95;;
29280;SDS011;25048;49.590;11.026;2022-08-21T07:52:17;13.00;;;8.70;;
29280;SDS011;25048;49.590;11.026;2022-08-21T07:54:45;14.15;;;9.05;;
29280;SDS011;25048;49.590;11.026;2022-08-21T07:57:13;11.25;;;8.35;;
29280;SDS011;25048;49.590;11.026;2022-08-21T07:59:41;12.85;;;9.15;;
29280;SDS011;25048;49.590;11.026;2022-08-21T08:02:09;14.87;;;9.68;;
29280;SDS011;25048;49.590;11.026;2022-08-21T08:04:36;13.78;;;10.15;;
29280;SDS011;25048;49.590;11.026;2022-08-21T08:07:04;13.38;;;9.40;;
29280;SDS011;25048;49.590;11.026;2022-08-21T08:09:31;14.18;;;10.08;;
29280;SDS011;25048;49.590;11.026;2022-08-21T08:11:59;14.25;;;10.00;;
29280;SDS011;25048;49.590;11.026;2022-08-21T08:14:26;12.70;;;9.30;;
29280;SDS011;25048;49.590;11.026;2022-08-21T08:16:54;12.58;;;9.20;;
29280;SDS011;25048;49.590;11.026;2022-08-21T08:19:22;13.15;;;9.18;;
29280;SDS011;25048;49.590;11.026;2022-08-21T08:21:49;10.13;;;8.18;;
29280;SDS011;25048;49.590;11.026;2022-08-21T08:24:17;13.80;;;9.30;;
29280;SDS011;25048;49.590;11.026;2022-08-21T08:26:45;12.10;;;9.33;;
29280;SDS011;25048;49.590;11.026;2022-08-21T08:29:13;12.25;;;8.45;;
29280;SDS011;25048;49.590;11.026;2022-08-21T08:31:40;12.33;;;9.75;;
29280;SDS011;25048;49.590;11.026;2022-08-21T08:34:08;12.53;;;9.43;;
29280;SDS011;25048;49.590;11.026;2022-08-21T08:36:36;13.98;;;9.60;;
29280;SDS011;25048;49.590;11.026;2022-08-21T08:39:04;10.88;;;8.23;;
29280;SDS011;25048;49.590;11.026;2022-08-21T08:41:32;11.73;;;8.78;;
29280;SDS011;25048;49.590;11.026;2022-08-21T08:44:02;12.45;;;9.50;;
29280;SDS011;25048;49.590;11.026;2022-08-21T08:46:36;11.63;;;8.80;;
29280;SDS011;25048;49.590;11.026;2022-08-21T08:49:13;13.10;;;9.85;;
29280;SDS011;25048;49.590;11.026;2022-08-21T08:51:46;12.30;;;9.25;;
29280;SDS011;25048;49.590;11.026;2022-08-21T08:54:34;10.10;;;8.30;;
29280;SDS011;25048;49.590;11.026;2022-08-21T08:57:07;10.95;;;9.28;;
29280;SDS011;25048;49.590;11.026;2022-08-21T08:59:44;13.75;;;10.18;;
29280;SDS011;25048;49.590;11.026;2022-08-21T09:02:11;12.28;;;9.95;;
29280;SDS011;25048;49.590;11.026;2022-08-21T09:04:39;12.13;;;9.43;;
29280;SDS011;25048;49.590;11.026;2022-08-21T09:07:30;14.07;;;10.40;;
29280;SDS011;25048;49.590;11.026;2022-08-21T09:10:19;10.53;;;8.95;;
29280;SDS011;25048;49.590;11.026;2022-08-21T09:13:07;14.93;;;10.03;;
29280;SDS011;25048;49.590;11.026;2022-08-21T09:18:48;12.40;;;10.18;;
29280;SDS011;25048;49.590;11.026;2022-08-21T09:21:35;13.75;;;10.28;;
29280;SDS011;25048;49.590;11.026;2022-08-21T09:24:13;10.82;;;9.25;;
29280;SDS011;25048;49.590;11.026;2022-08-21T09:27:13;12.78;;;10.60;;
29280;SDS011;25048;49.590;11.026;2022-08-21T09:29:40;14.73;;;11.73;;
29280;SDS011;25048;49.590;11.026;2022-08-21T09:32:19;14.35;;;10.65;;
29280;SDS011;25048;49.590;11.026;2022-08-21T09:35:03;13.32;;;10.70;;
29280;SDS011;25048;49.590;11.026;2022-08-21T09:37:35;12.53;;;9.83;;
29280;SDS011;25048;49.590;11.026;2022-08-21T09:40:29;14.07;;;9.50;;
29280;SDS011;25048;49.590;11.026;2022-08-21T09:43:05;12.15;;;9.00;;
29280;SDS011;25048;49.590;11.026;2022-08-21T09:45:40;12.75;;;10.10;;
29280;SDS011;25048;49.590;11.026;2022-08-21T09:48:13;13.43;;;10.23;;
29280;SDS011;25048;49.590;11.026;2022-08-21T09:51:09;11.55;;;9.38;;
29280;SDS011;25048;49.590;11.026;2022-08-21T09:53:38;11.00;;;9.48;;
29280;SDS011;25048;49.590;11.026;2022-08-21T09:56:16;10.08;;;8.80;;
29280;SDS011;25048;49.590;11.026;2022-08-21T09:59:12;10.48;;;8.18;;
29280;SDS011;25048;49.590;11.026;2022-08-21T10:01:43;10.70;;;7.55;;
29280;SDS011;25048;49.590;11.026;2022-08-21T10:04:13;11.33;;;9.03;;
29280;SDS011;25048;49.590;11.026;2022-08-21T10:06:41;12.98;;;9.50;;
29280;SDS011;25048;49.590;11.026;2022-08-21T10:09:11;10.75;;;9.20;;
29280;SDS011;25048;49.590;11.026;2022-08-21T10:11:40;9.70;;;7.95;;
29280;SDS011;25048;49.590;11.026;2022-08-21T10:14:32;10.28;;;8.78;;
29280;SDS011;25048;49.590;11.026;2022-08-21T10:19:26;9.25;;;8.13;;
29280;SDS011;25048;49.590;11.026;2022-08-21T10:21:59;11.15;;;7.78;;
29280;SDS011;25048;49.590;11.026;2022-08-21T10:27:43;10.15;;;8.40;;
29280;SDS011;25048;49.590;11.026;2022-08-21T10:36:09;11.48;;;9.70;;
29280;SDS011;25048;49.590;11.026;2022-08-21T10:38:58;11.20;;;9.25;;
29280;SDS011;25048;49.590;11.026;2022-08-21T10:41:52;11.00;;;9.18;;
29280;SDS011;25048;49.590;11.026;2022-08-21T10:44:41;9.63;;;8.23;;
29280;SDS011;25048;49.590;11.026;2022-08-21T10:47:24;8.85;;;7.70;;
29280;SDS011;25048;49.590;11.026;2022-08-21T10:50:13;10.23;;;8.08;;
29280;SDS011;25048;49.590;11.026;2022-08-21T10:52:59;10.58;;;8.15;;
29280;SDS011;25048;49.590;11.026;2022-08-21T10:55:36;8.33;;;7.15;;
29280;SDS011;25048;49.590;11.026;2022-08-21T10:58:17;9.20;;;6.22;;
29280;SDS011;25048;49.590;11.026;2022-08-21T11:00:43;8.78;;;6.92;;
29280;SDS011;25048;49.590;11.026;2022-08-21T11:03:21;7.37;;;5.85;;
29280;SDS011;25048;49.590;11.026;2022-08-21T11:06:18;8.08;;;6.35;;
29280;SDS011;25048;49.590;11.026;2022-08-21T11:08:48;6.55;;;5.50;;
29280;SDS011;25048;49.590;11.026;2022-08-21T11:11:25;6.58;;;5.85;;
29280;SDS011;25048;49.590;11.026;2022-08-21T11:13:58;6.12;;;5.10;;
29280;SDS011;25048;49.590;11.026;2022-08-21T11:21:39;6.53;;;4.75;;
29280;SDS011;25048;49.590;11.026;2022-08-21T11:24:30;5.87;;;5.28;;
29280;SDS011;25048;49.590;11.026;2022-08-21T11:30:00;5.78;;;5.28;;
29280;SDS011;25048;49.590;11.026;2022-08-21T11:35:18;6.87;;;4.83;;
29280;SDS011;25048;49.590;11.026;2022-08-21T11:37:49;4.33;;;3.83;;
29280;SDS011;25048;49.590;11.026;2022-08-21T11:43:12;6.87;;;4.60;;
29280;SDS011;25048;49.590;11.026;2022-08-21T11:45:53;5.87;;;4.08;;
29280;SDS011;25048;49.590;11.026;2022-08-21T11:48:30;7.40;;;4.40;;
29280;SDS011;25048;49.590;11.026;2022-08-21T11:50:55;6.95;;;3.83;;
29280;SDS011;25048;49.590;11.026;2022-08-21T11:53:26;5.00;;;4.40;;
29280;SDS011;25048;49.590;11.026;2022-08-21T11:56:06;5.42;;;3.80;;
29280;SDS011;25048;49.590;11.026;2022-08-21T11:58:32;4.35;;;3.58;;
29280;SDS011;25048;49.590;11.026;2022-08-21T12:01:09;4.22;;;3.30;;
29280;SDS011;25048;49.590;11.026;2022-08-21T12:03:40;3.70;;;3.02;;
29280;SDS011;25048;49.590;11.026;2022-08-21T12:06:13;3.60;;;3.30;;
29280;SDS011;25048;49.590;11.026;2022-08-21T12:08:41;5.75;;;3.95;;
29280;SDS011;25048;49.590;11.026;2022-08-21T12:14:22;10.18;;;3.17;;
29280;SDS011;25048;49.590;11.026;2022-08-21T12:16:32;4.03;;;3.20;;
29280;SDS011;25048;49.590;11.026;2022-08-21T12:19:09;4.03;;;3.30;;
29280;SDS011;25048;49.590;11.026;2022-08-21T12:22:07;5.53;;;3.60;;
29280;SDS011;25048;49.590;11.026;2022-08-21T12:24:51;5.40;;;3.52;;
29280;SDS011;25048;49.590;11.026;2022-08-21T12:30:55;4.05;;;3.42;;
29280;SDS011;25048;49.590;11.026;2022-08-21T12:32:56;5.53;;;3.15;;
29280;SDS011;25048;49.590;11.026;2022-08-21T12:35:27;8.25;;;3.30;;
29280;SDS011;25048;49.590;11.026;2022-08-21T12:38:01;3.35;;;2.80;;
29280;SDS011;25048;49.590;11.026;2022-08-21T12:40:30;3.05;;;2.75;;
29280;SDS011;25048;49.590;11.026;2022-08-21T12:43:16;4.22;;;2.65;;
29280;SDS011;25048;49.590;11.026;2022-08-21T12:45:44;3.45;;;2.98;;
29280;SDS011;25048;49.590;11.026;2022-08-21T12:50:48;3.12;;;2.83;;
29280;SDS011;25048;49.590;11.026;2022-08-21T12:53:38;3.37;;;3.08;;
29280;SDS011;25048;49.590;11.026;2022-08-21T12:56:02;4.60;;;3.15;;
29280;SDS011;25048;49.590;11.026;2022-08-21T12:58:32;3.37;;;2.67;;
29280;SDS011;25048;49.590;11.026;2022-08-21T13:01:06;4.45;;;2.87;;
29280;SDS011;25048;49.590;11.026;2022-08-21T13:03:31;5.58;;;3.08;;
29280;SDS011;25048;49.590;11.026;2022-08-21T13:06:00;4.90;;;2.83;;
29280;SDS011;25048;49.590;11.026;2022-08-21T13:08:30;4.00;;;3.12;;
29280;SDS011;25048;49.590;11.026;2022-08-21T13:11:03;3.30;;;3.00;;
29280;SDS011;25048;49.590;11.026;2022-08-21T13:13:32;5.37;;;3.27;;
29280;SDS011;25048;49.590;11.026;2022-08-21T13:16:02;4.05;;;3.47;;
29280;SDS011;25048;49.590;11.026;2022-08-21T13:18:31;3.30;;;3.00;;
29280;SDS011;25048;49.590;11.026;2022-08-21T13:23:34;3.60;;;3.12;;
29280;SDS011;25048;49.590;11.026;2022-08-21T13:26:11;3.30;;;3.00;;
29280;SDS011;25048;49.590;11.026;2022-08-21T13:28:45;3.42;;;2.95;;
29280;SDS011;25048;49.590;11.026;2022-08-21T13:31:18;3.02;;;2.80;;
29280;SDS011;25048;49.590;11.026;2022-08-21T13:33:47;3.42;;;3.08;;
29280;SDS011;25048;49.590;11.026;2022-08-21T13:36:20;5.62;;;2.92;;
29280;SDS011;25048;49.590;11.026;2022-08-21T13:38:50;4.00;;;3.60;;
29280;SDS011;25048;49.590;11.026;2022-08-21T13:41:21;4.10;;;3.70;;
29280;SDS011;25048;49.590;11.026;2022-08-21T13:44:03;5.35;;;2.98;;
29280;SDS011;25048;49.590;11.026;2022-08-21T13:46:26;3.40;;;3.10;;
29280;SDS011;25048;49.590;11.026;2022-08-21T13:48:55;3.72;;;2.67;;
29280;SDS011;25048;49.590;11.026;2022-08-21T13:54:16;3.50;;;2.60;;
29280;SDS011;25048;49.590;11.026;2022-08-21T13:56:49;2.52;;;2.33;;
29280;SDS011;25048;49.590;11.026;2022-08-21T13:59:27;3.30;;;2.55;;
29280;SDS011;25048;49.590;11.026;2022-08-21T14:02:01;3.15;;;2.60;;
29280;SDS011;25048;49.590;11.026;2022-08-21T14:04:35;3.42;;;2.67;;
29280;SDS011;25048;49.590;11.026;2022-08-21T14:07:13;2.58;;;2.37;;
29280;SDS011;25048;49.590;11.026;2022-08-21T14:09:45;2.85;;;2.55;;
29280;SDS011;25048;49.590;11.026;2022-08-21T14:12:23;3.02;;;2.52;;
29280;SDS011;25048;49.590;11.026;2022-08-21T14:14:47;2.80;;;2.60;;
29280;SDS011;25048;49.590;11.026;2022-08-21T14:17:25;2.65;;;2.45;;
29280;SDS011;25048;49.590;11.026;2022-08-21T14:20:01;5.00;;;2.50;;
29280;SDS011;25048;49.590;11.026;2022-08-21T14:22:38;2.52;;;2.33;;
29280;SDS011;25048;49.590;11.026;2022-08-21T14:25:08;2.50;;;2.30;;
29280;SDS011;25048;49.590;11.026;2022-08-21T14:27:43;3.22;;;2.20;;
29280;SDS011;25048;49.590;11.026;2022-08-21T14:30:12;3.35;;;2.47;;
29280;SDS011;25048;49.590;11.026;2022-08-21T14:32:41;3.45;;;2.20;;
29280;SDS011;25048;49.590;11.026;2022-08-21T14:35:09;2.35;;;2.15;;
29280;SDS011;25048;49.590;11.026;2022-08-21T14:37:41;2.75;;;2.33;;
29280;SDS011;25048;49.590;11.026;2022-08-21T14:40:11;2.90;;;2.30;;
29280;SDS011;25048;49.590;11.026;2022-08-21T14:42:40;2.87;;;2.02;;
29280;SDS011;25048;49.590;11.026;2022-08-21T14:45:30;2.67;;;2.12;;
29280;SDS011;25048;49.590;11.026;2022-08-21T14:47:41;3.30;;;2.05;;
29280;SDS011;25048;49.590;11.026;2022-08-21T14:50:09;2.55;;;2.35;;
29280;SDS011;25048;49.590;11.026;2022-08-21T14:52:38;2.33;;;2.12;;
29280;SDS011;25048;49.590;11.026;2022-08-21T14:55:08;6.67;;;3.52;;
29280;SDS011;25048;49.590;11.026;2022-08-21T14:57:38;2.17;;;1.92;;
29280;SDS011;25048;49.590;11.026;2022-08-21T15:00:06;2.35;;;2.10;;
29280;SDS011;25048;49.590;11.026;2022-08-21T15:02:35;4.45;;;2.20;;
29280;SDS011;25048;49.590;11.026;2022-08-21T15:05:02;5.00;;;2.12;;
29280;SDS011;25048;49.590;11.026;2022-08-21T15:07:31;2.05;;;1.85;;
29280;SDS011;25048;49.590;11.026;2022-08-21T15:09:58;2.37;;;2.05;;
29280;SDS011;25048;49.590;11.026;2022-08-21T15:12:26;2.60;;;2.40;;
29280;SDS011;25048;49.590;11.026;2022-08-21T15:14:53;2.27;;;2.08;;
29280;SDS011;25048;49.590;11.026;2022-08-21T15:17:21;4.42;;;2.50;;
29280;SDS011;25048;49.590;11.026;2022-08-21T15:19:48;2.30;;;2.10;;
29280;SDS011;25048;49.590;11.026;2022-08-21T15:22:16;3.85;;;2.83;;
29280;SDS011;25048;49.590;11.026;2022-08-21T15:24:44;2.67;;;2.35;;
29280;SDS011;25048;49.590;11.026;2022-08-21T15:27:11;2.52;;;2.10;;
29280;SDS011;25048;49.590;11.026;2022-08-21T15:29:39;2.40;;;2.20;;
29280;SDS011;25048;49.590;11.026;2022-08-21T15:34:46;2.25;;;2.05;;